createdAt,value
2023-03-11T00:00:17.193Z,1.80
2023-03-11T00:02:45.993Z,24.80
2023-03-11T00:05:15.571Z,19.80
2023-03-11T00:07:43.814Z,26.60
2023-03-11T00:10:15.748Z,26.20
2023-03-11T00:12:44.200Z,25.40
2023-03-11T00:15:14.616Z,25.00
2023-03-11T00:17:42.865Z,27.20
2023-03-11T00:20:16.769Z,22.40
2023-03-11T00:22:44.827Z,23.60
2023-03-11T00:25:12.971Z,20.20
2023-03-11T00:27:41.130Z,24.80
2023-03-11T00:30:10.127Z,26.80
2023-03-11T00:32:40.042Z,27.40
2023-03-11T00:35:09.633Z,22.40
2023-03-11T00:37:37.772Z,25.00
2023-03-11T00:40:08.874Z,27.80
2023-03-11T00:42:37.197Z,21.20
2023-03-11T00:45:05.598Z,24.00
2023-03-11T00:47:33.830Z,21.40
2023-03-11T00:50:03.584Z,23.40
2023-03-11T00:52:31.917Z,27.00
2023-03-11T00:55:00.741Z,26.60
2023-03-11T00:57:29.363Z,32.20
2023-03-11T00:59:57.989Z,27.20
2023-03-11T01:02:26.156Z,20.60
2023-03-11T01:04:55.689Z,30.00
2023-03-11T01:07:25.407Z,28.40
2023-03-11T01:09:53.632Z,23.20
2023-03-11T01:12:21.770Z,24.40
2023-03-11T01:14:49.801Z,25.60
2023-03-11T01:17:18.072Z,26.80
2023-03-11T01:19:46.155Z,29.20
2023-03-11T01:22:14.276Z,25.00
2023-03-11T01:24:43.881Z,17.60
2023-03-11T01:27:11.953Z,14.40
2023-03-11T01:29:40.089Z,30.60
2023-03-11T01:32:08.675Z,29.60
2023-03-11T01:34:37.892Z,30.00
2023-03-11T01:37:06.027Z,33.20
2023-03-11T01:39:34.179Z,33.20
2023-03-11T01:42:03.859Z,34.80
2023-03-11T01:44:31.991Z,33.60
2023-03-11T01:47:18.850Z,36.20
2023-03-11T01:49:47.136Z,30.20
2023-03-11T01:52:15.443Z,35.20
2023-03-11T01:54:51.816Z,32.60
2023-03-11T01:57:22.844Z,36.80
2023-03-11T01:59:53.249Z,34.00
2023-03-11T02:02:23.200Z,38.20
2023-03-11T02:04:53.455Z,33.00
2023-03-11T02:07:25.520Z,34.40
2023-03-11T02:09:54.025Z,38.20
2023-03-11T02:12:24.651Z,31.40
2023-03-11T02:14:54.103Z,31.40
2023-03-11T02:17:22.337Z,34.80
2023-03-11T02:20:01.606Z,34.00
2023-03-11T02:22:36.259Z,34.00
2023-03-11T02:25:09.751Z,36.20
2023-03-11T02:27:41.852Z,38.60
2023-03-11T02:30:12.500Z,33.00
2023-03-11T02:32:42.551Z,34.00
2023-03-11T02:35:10.805Z,35.60
2023-03-11T02:37:44.759Z,29.00
2023-03-11T02:40:30.635Z,34.40
2023-03-11T02:43:01.729Z,36.80
2023-03-11T02:45:31.655Z,34.40
2023-03-11T02:48:00.929Z,33.40
2023-03-11T02:50:31.603Z,30.40
2023-03-11T02:52:59.729Z,30.40
2023-03-11T02:55:27.977Z,34.00
2023-03-11T02:57:56.126Z,31.40
2023-03-11T03:00:25.845Z,35.20
2023-03-11T03:02:59.224Z,34.40
2023-03-11T03:05:28.717Z,35.60
2023-03-11T03:07:58.933Z,33.20
2023-03-11T03:10:28.055Z,27.20
2023-03-11T03:12:56.299Z,32.20
2023-03-11T03:15:25.965Z,6.80
2023-03-11T03:17:54.546Z,21.80
2023-03-11T03:20:23.688Z,20.20
2023-03-11T03:22:55.796Z,20.20
2023-03-11T03:25:28.409Z,22.80
2023-03-11T03:27:59.192Z,15.00
2023-03-11T03:30:29.578Z,18.20
2023-03-11T03:32:57.967Z,20.60
2023-03-11T03:35:26.240Z,16.40
2023-03-11T03:38:08.108Z,16.00
2023-03-11T03:40:36.326Z,9.60
2023-03-11T03:43:06.835Z,14.20
2023-03-11T03:45:38.207Z,11.60
2023-03-11T03:48:06.566Z,9.40
2023-03-11T03:50:40.554Z,10.00
2023-03-11T03:53:10.210Z,9.20
2023-03-11T03:55:39.183Z,10.40
2023-03-11T03:58:07.362Z,13.80
2023-03-11T04:00:39.545Z,10.00
2023-03-11T04:03:08.200Z,9.40
2023-03-11T04:05:46.011Z,7.40
2023-03-11T04:08:15.347Z,7.00
2023-03-11T04:10:44.725Z,7.40
2023-03-11T04:13:12.922Z,8.40
2023-03-11T04:15:43.694Z,6.60
2023-03-11T04:18:11.821Z,7.00
2023-03-11T04:20:40.385Z,8.60
2023-03-11T04:23:08.663Z,9.00
2023-03-11T04:25:36.976Z,7.80
2023-03-11T04:28:05.564Z,8.20
2023-03-11T04:30:34.504Z,7.00
2023-03-11T04:33:04.700Z,4.00
2023-03-11T04:35:32.966Z,6.00
2023-03-11T04:38:01.779Z,8.40
2023-03-11T04:40:29.973Z,10.00
2023-03-11T04:42:58.901Z,6.80
2023-03-11T04:45:27.089Z,7.40
2023-03-11T04:47:59.578Z,7.80
2023-03-11T04:50:29.988Z,7.00
2023-03-11T04:52:58.317Z,8.20
2023-03-11T04:55:27.090Z,10.00
2023-03-11T04:57:55.572Z,5.60
2023-03-11T05:00:25.189Z,9.00
2023-03-11T05:03:03.204Z,9.40
2023-03-11T05:05:33.141Z,7.00
2023-03-11T05:08:01.290Z,9.00
2023-03-11T05:10:32.130Z,4.00
2023-03-11T05:13:03.516Z,5.20
2023-03-11T05:15:36.683Z,6.60
2023-03-11T05:18:05.394Z,7.40
2023-03-11T05:20:36.744Z,4.40
2023-03-11T05:23:05.289Z,7.00
2023-03-11T05:25:36.383Z,10.40
2023-03-11T05:28:05.912Z,3.60
2023-03-11T05:30:37.328Z,7.00
2023-03-11T05:33:05.541Z,7.00
2023-03-11T05:35:33.700Z,7.00
2023-03-11T05:38:03.680Z,6.00
2023-03-11T05:40:32.266Z,7.00
2023-03-11T05:43:00.524Z,8.20
2023-03-11T05:45:31.764Z,10.00
2023-03-11T05:48:02.246Z,10.20
2023-03-11T05:50:31.511Z,10.00
2023-03-11T05:52:59.827Z,9.80
2023-03-11T05:55:32.429Z,6.80
2023-03-11T05:58:01.309Z,10.00
2023-03-11T06:00:30.135Z,7.00
2023-03-11T06:03:01.028Z,12.80
2023-03-11T06:05:29.765Z,6.60
2023-03-11T06:07:58.686Z,6.00
2023-03-11T06:10:26.881Z,10.40
2023-03-11T06:12:56.851Z,5.20
2023-03-11T06:15:34.975Z,5.60
2023-03-11T06:18:03.304Z,8.20
2023-03-11T06:20:32.601Z,0.00
2023-03-11T06:23:00.732Z,5.20
2023-03-11T06:25:29.127Z,5.60
2023-03-11T06:27:59.118Z,5.60
2023-03-11T06:30:27.422Z,7.00
2023-03-11T06:33:14.540Z,6.60
2023-03-11T06:35:43.131Z,7.00
2023-03-11T06:38:11.345Z,7.80
2023-03-11T06:40:39.847Z,8.60
2023-03-11T06:43:09.564Z,4.50
2023-03-11T06:45:40.751Z,8.60
2023-03-11T06:48:10.206Z,6.60
2023-03-11T06:50:39.298Z,6.25
2023-03-11T06:53:08.347Z,4.00
2023-03-11T06:55:37.601Z,5.20
2023-03-11T06:58:06.234Z,4.00
2023-03-11T07:00:36.476Z,4.00
2023-03-11T07:03:05.101Z,3.80
2023-03-11T07:05:33.932Z,4.00
2023-03-11T07:08:07.153Z,4.20
2023-03-11T07:10:35.840Z,8.20
2023-03-11T07:13:04.359Z,3.00
2023-03-11T07:15:33.239Z,6.00
2023-03-11T07:18:02.922Z,3.20
2023-03-11T07:20:31.222Z,6.00
2023-03-11T07:22:59.408Z,7.80
2023-03-11T07:25:29.794Z,7.00
2023-03-11T07:27:57.950Z,7.00
2023-03-11T07:30:26.122Z,7.80
2023-03-11T07:32:54.260Z,7.80
2023-03-11T07:35:23.947Z,5.60
2023-03-11T07:37:52.087Z,9.00
2023-03-11T07:40:20.283Z,8.60
2023-03-11T07:42:48.527Z,0.00
2023-03-11T07:45:17.678Z,9.00
2023-03-11T07:47:46.061Z,8.60
2023-03-11T07:50:14.336Z,10.00
2023-03-11T07:52:43.910Z,6.00
2023-03-11T07:55:12.295Z,4.00
2023-03-11T07:57:40.850Z,9.00
2023-03-11T08:00:10.140Z,9.60
2023-03-11T08:02:41.197Z,9.00
2023-03-11T08:05:09.869Z,3.00
2023-03-11T08:07:38.039Z,8.60
2023-03-11T08:10:08.200Z,4.80
2023-03-11T08:12:36.456Z,6.80
2023-03-11T08:15:04.862Z,7.80
2023-03-11T08:17:33.022Z,9.60
2023-03-11T08:20:01.641Z,6.80
2023-03-11T08:22:30.914Z,7.40
2023-03-11T08:24:59.256Z,6.40
2023-03-11T08:27:30.572Z,10.00
2023-03-11T08:29:59.741Z,6.20
2023-03-11T08:32:31.345Z,6.80
2023-03-11T08:34:59.485Z,8.20
2023-03-11T08:37:27.857Z,9.80
2023-03-11T08:39:56.077Z,9.20
2023-03-11T08:42:24.419Z,12.00
2023-03-11T08:44:54.309Z,10.40
2023-03-11T08:47:22.597Z,8.60
2023-03-11T08:49:50.977Z,9.20
2023-03-11T08:52:19.172Z,8.60
2023-03-11T08:54:47.476Z,9.00
2023-03-11T08:57:15.676Z,6.20
2023-03-11T08:59:43.791Z,1.80
2023-03-11T09:02:13.429Z,4.00
2023-03-11T09:04:41.679Z,9.00
2023-03-11T09:07:10.642Z,3.40
2023-03-11T09:09:38.868Z,7.00
2023-03-11T09:12:08.057Z,7.00
2023-03-11T09:14:39.465Z,8.20
2023-03-11T09:17:08.192Z,8.60
2023-03-11T09:19:38.053Z,9.60
2023-03-11T09:22:06.655Z,8.20
2023-03-11T09:24:35.222Z,7.00
2023-03-11T09:27:03.858Z,9.80
2023-03-11T09:29:32.146Z,7.20
2023-03-11T09:32:00.603Z,8.20
2023-03-11T09:34:29.214Z,8.20
2023-03-11T09:36:59.792Z,7.40
2023-03-11T09:39:28.246Z,6.40
2023-03-11T09:41:59.207Z,6.00
2023-03-11T09:44:33.053Z,7.00
2023-03-11T09:47:22.836Z,6.80
2023-03-11T09:50:01.473Z,7.00
2023-03-11T09:52:34.216Z,9.40
2023-03-11T09:55:04.858Z,6.00
2023-03-11T09:57:34.636Z,6.40
2023-03-11T10:00:05.320Z,10.40
2023-03-11T10:02:41.792Z,6.20
2023-03-11T10:05:15.682Z,5.20
2023-03-11T10:07:48.523Z,6.60
2023-03-11T10:10:18.748Z,6.80
2023-03-11T10:12:52.310Z,6.00
2023-03-11T10:15:26.262Z,6.60
2023-03-11T10:18:01.261Z,7.40
2023-03-11T10:20:32.181Z,9.20
2023-03-11T10:23:05.991Z,8.20
2023-03-11T10:25:41.868Z,10.00
2023-03-11T10:28:13.588Z,10.40
2023-03-11T10:30:44.725Z,10.00
2023-03-11T10:33:21.551Z,7.00
2023-03-11T10:35:53.138Z,7.80
2023-03-11T10:38:24.454Z,7.00
2023-03-11T10:40:55.094Z,5.20
2023-03-11T10:43:25.880Z,7.80
2023-03-11T10:45:55.415Z,6.60
2023-03-11T10:48:24.024Z,7.00
2023-03-11T10:50:56.429Z,4.80
2023-03-11T10:53:26.110Z,6.00
2023-03-11T10:55:55.624Z,4.60
2023-03-11T10:58:25.341Z,3.00
2023-03-11T11:01:04.087Z,6.00
2023-03-11T11:03:32.628Z,8.20
2023-03-11T11:06:02.244Z,7.00
2023-03-11T11:08:32.533Z,6.20
2023-03-11T11:11:02.007Z,6.80
2023-03-11T11:13:32.544Z,6.00
2023-03-11T11:16:03.197Z,7.40
2023-03-11T11:18:33.745Z,9.00
2023-03-11T11:21:03.524Z,6.60
2023-03-11T11:23:35.922Z,8.20
2023-03-11T11:26:06.180Z,3.20
2023-03-11T11:28:34.913Z,7.00
2023-03-11T11:31:04.889Z,6.20
2023-03-11T11:33:34.171Z,6.40
2023-03-11T11:36:03.888Z,6.00
2023-03-11T11:38:32.929Z,4.00
2023-03-11T11:41:05.003Z,6.40
2023-03-11T11:43:37.502Z,7.00
2023-03-11T11:46:07.398Z,9.00
2023-03-11T11:48:42.522Z,7.00
2023-03-11T11:51:15.524Z,6.00
2023-03-11T11:53:46.556Z,6.00
2023-03-11T11:56:16.248Z,8.60
2023-03-11T11:58:44.572Z,6.25
2023-03-11T12:01:17.385Z,7.00
2023-03-11T12:04:00.691Z,4.00
2023-03-11T12:06:33.274Z,5.00
2023-03-11T12:09:08.778Z,5.00
2023-03-11T12:11:42.061Z,6.00
2023-03-11T12:14:13.966Z,4.50
2023-03-11T12:16:43.926Z,7.00
2023-03-11T12:19:18.302Z,7.00
2023-03-11T12:21:53.267Z,7.00
2023-03-11T12:24:33.496Z,6.50
2023-03-11T12:27:05.120Z,9.00
2023-03-11T12:29:36.188Z,7.00
2023-03-11T12:32:04.653Z,7.50
2023-03-11T12:34:35.833Z,6.60
2023-03-11T12:37:04.551Z,3.00
2023-03-11T12:39:34.072Z,4.00
2023-03-11T12:42:20.708Z,4.00
2023-03-11T12:44:49.470Z,7.00
2023-03-11T12:47:25.368Z,6.60
2023-03-11T12:49:55.119Z,4.40
2023-03-11T12:52:27.851Z,9.00
2023-03-11T12:55:14.660Z,6.80
2023-03-11T12:57:50.624Z,5.20
2023-03-11T13:00:24.119Z,5.60
2023-03-11T13:03:04.368Z,2.20
2023-03-11T13:05:40.712Z,6.60
2023-03-11T13:08:11.234Z,6.80
2023-03-11T13:10:40.878Z,6.00
2023-03-11T13:13:27.528Z,7.00
2023-03-11T13:15:57.909Z,6.00
2023-03-11T13:18:26.777Z,6.80
2023-03-11T13:20:59.405Z,6.00
2023-03-11T13:23:33.605Z,7.00
2023-03-11T13:26:17.711Z,6.40
2023-03-11T13:28:52.838Z,7.80
2023-03-11T13:31:30.885Z,4.80
2023-03-11T13:34:02.331Z,6.20
2023-03-11T13:36:37.925Z,4.00
2023-03-11T13:39:30.022Z,4.00
2023-03-11T13:41:58.184Z,6.60
2023-03-11T13:44:29.083Z,4.00
2023-03-11T13:47:01.930Z,4.00
2023-03-11T13:49:34.186Z,6.40
2023-03-11T13:52:03.501Z,4.00
2023-03-11T13:54:36.280Z,6.20
2023-03-11T13:57:04.597Z,6.40
2023-03-11T13:59:33.837Z,4.00
2023-03-11T14:02:06.076Z,7.00
2023-03-11T14:04:35.563Z,6.00
2023-03-11T14:07:13.778Z,0.00
2023-03-11T14:09:42.467Z,6.40
2023-03-11T14:12:11.296Z,7.00
2023-03-11T14:14:45.415Z,3.00
2023-03-11T14:17:16.732Z,6.00
2023-03-11T14:19:44.940Z,8.60
2023-03-11T14:22:16.694Z,5.20
2023-03-11T14:24:49.353Z,6.20
2023-03-11T14:27:18.397Z,6.00
2023-03-11T14:29:48.446Z,7.00
2023-03-11T14:32:25.151Z,7.00
2023-03-11T14:34:53.420Z,7.00
2023-03-11T14:37:31.981Z,3.40
2023-03-11T14:40:00.251Z,6.20
2023-03-11T14:42:29.871Z,8.20
2023-03-11T14:45:02.993Z,5.60
2023-03-11T14:47:36.947Z,9.00
2023-03-11T14:50:06.452Z,6.40
2023-03-11T14:52:37.398Z,6.60
2023-03-11T14:55:07.560Z,6.00
2023-03-11T14:57:38.986Z,6.40
2023-03-11T15:00:12.329Z,9.00
2023-03-11T15:02:46.132Z,6.20
2023-03-11T15:05:18.993Z,7.80
2023-03-11T15:07:47.812Z,4.80
2023-03-11T15:10:16.373Z,7.80
2023-03-11T15:12:45.389Z,6.20
2023-03-11T15:15:23.251Z,14.80
2023-03-11T15:17:57.742Z,9.60
2023-03-11T15:20:27.687Z,6.00
2023-03-11T15:23:00.803Z,9.00
2023-03-11T15:25:30.422Z,7.00
2023-03-11T15:27:58.939Z,5.00
2023-03-11T15:30:28.119Z,7.00
2023-03-11T15:32:59.430Z,6.40
2023-03-11T15:35:28.409Z,7.00
2023-03-11T15:38:11.468Z,6.00
2023-03-11T15:40:45.605Z,4.40
2023-03-11T15:43:23.949Z,7.40
2023-03-11T15:45:53.692Z,7.00
2023-03-11T15:48:23.797Z,6.60
2023-03-11T15:50:54.468Z,6.00
2023-03-11T15:53:23.377Z,6.00
2023-03-11T15:55:51.733Z,2.20
2023-03-11T15:58:20.781Z,6.00
2023-03-11T16:00:49.866Z,7.00
2023-03-11T16:03:18.347Z,7.80
2023-03-11T16:05:48.336Z,6.40
2023-03-11T16:08:16.501Z,4.80
2023-03-11T16:10:44.829Z,6.80
2023-03-11T16:13:14.080Z,3.60
2023-03-11T16:15:42.814Z,7.00
2023-03-11T16:18:11.814Z,5.20
2023-03-11T16:20:41.417Z,4.40
2023-03-11T16:23:14.220Z,7.00
2023-03-11T16:25:42.457Z,6.00
2023-03-11T16:28:13.178Z,3.60
2023-03-11T16:30:41.399Z,7.00
2023-03-11T16:33:09.787Z,6.40
2023-03-11T16:35:38.275Z,4.40
2023-03-11T16:38:08.198Z,6.60
2023-03-11T16:40:38.417Z,5.20
2023-03-11T16:43:07.563Z,6.80
2023-03-11T16:45:35.818Z,5.40
2023-03-11T16:48:05.644Z,6.00
2023-03-11T16:50:37.233Z,6.80
2023-03-11T16:53:05.616Z,7.75
2023-03-11T16:55:33.840Z,0.00
2023-03-11T16:58:03.567Z,7.00
2023-03-11T17:00:31.917Z,6.80
2023-03-11T17:03:00.138Z,5.20
2023-03-11T17:05:28.448Z,4.00
2023-03-11T17:08:01.178Z,4.00
2023-03-11T17:10:29.916Z,6.50
2023-03-11T17:12:58.272Z,7.40
2023-03-11T17:15:27.990Z,9.80
2023-03-11T17:17:56.188Z,8.60
2023-03-11T17:20:24.764Z,8.60
2023-03-11T17:22:52.959Z,4.00
2023-03-11T17:25:24.326Z,9.00
2023-03-11T17:27:52.612Z,8.20
2023-03-11T17:30:34.271Z,5.20
2023-03-11T17:33:05.958Z,9.80
2023-03-11T17:35:34.161Z,10.80
2023-03-11T17:38:04.131Z,6.60
2023-03-11T17:40:32.962Z,9.20
2023-03-11T17:43:01.395Z,7.25
2023-03-11T17:45:29.734Z,9.40
2023-03-11T17:47:58.039Z,9.00
2023-03-11T17:50:27.768Z,9.50
2023-03-11T17:52:56.683Z,9.00
2023-03-11T17:55:24.966Z,7.00
2023-03-11T17:57:53.669Z,8.60
2023-03-11T18:00:22.648Z,11.20
2023-03-11T18:02:51.495Z,10.20
2023-03-11T18:05:20.077Z,9.80
2023-03-11T18:07:49.764Z,8.20
2023-03-11T18:10:18.079Z,6.60
2023-03-11T18:12:47.030Z,6.00
2023-03-11T18:15:19.283Z,7.40
2023-03-11T18:17:48.034Z,12.00
2023-03-11T18:20:16.592Z,5.20
2023-03-11T18:22:46.659Z,6.60
2023-03-11T18:25:16.750Z,10.40
2023-03-11T18:27:44.966Z,8.60
2023-03-11T18:30:14.600Z,9.80
2023-03-11T18:32:42.954Z,10.40
2023-03-11T18:35:11.310Z,9.20
2023-03-11T18:37:39.541Z,5.60
2023-03-11T18:40:08.281Z,12.20
2023-03-11T18:42:37.880Z,4.40
2023-03-11T18:45:06.614Z,8.60
2023-03-11T18:47:35.502Z,9.80
2023-03-11T18:50:03.787Z,9.00
2023-03-11T18:52:32.140Z,7.00
2023-03-11T18:55:00.547Z,4.00
2023-03-11T18:57:28.817Z,5.20
2023-03-11T18:59:58.384Z,6.80
2023-03-11T19:02:27.188Z,3.80
2023-03-11T19:04:55.527Z,10.40
2023-03-11T19:07:23.808Z,8.60
2023-03-11T19:09:51.945Z,6.60
2023-03-11T19:12:20.165Z,6.20
2023-03-11T19:14:48.415Z,9.00
2023-03-11T19:17:18.456Z,4.80
2023-03-11T19:19:46.775Z,7.00
2023-03-11T19:22:15.232Z,9.80
2023-03-11T19:24:43.443Z,6.60
2023-03-11T19:27:11.544Z,6.80
2023-03-11T19:29:39.705Z,9.20
2023-03-11T19:32:07.964Z,4.80
2023-03-11T19:34:38.571Z,8.60
2023-03-11T19:37:06.837Z,10.00
2023-03-11T19:39:35.361Z,9.00
2023-03-11T19:42:06.054Z,6.00
2023-03-11T19:44:34.260Z,6.00
2023-03-11T19:47:02.490Z,8.20
2023-03-11T19:49:30.597Z,6.60
2023-03-11T19:52:00.158Z,9.20
2023-03-11T19:54:28.270Z,7.60
2023-03-11T19:56:56.353Z,7.00
2023-03-11T19:59:24.491Z,6.60
2023-03-11T20:01:52.640Z,7.40
2023-03-11T20:04:20.924Z,6.20
2023-03-11T20:06:49.098Z,9.40
2023-03-11T20:09:18.792Z,8.20
2023-03-11T20:11:47.576Z,9.40
2023-03-11T20:14:16.065Z,8.60
2023-03-11T20:16:44.889Z,7.40
2023-03-11T20:19:13.108Z,9.20
2023-03-11T20:21:42.059Z,6.20
2023-03-11T20:24:11.421Z,7.00
2023-03-11T20:26:41.198Z,7.40
2023-03-11T20:29:09.469Z,7.00
2023-03-11T20:31:38.158Z,7.00
2023-03-11T20:34:06.659Z,8.00
2023-03-11T20:36:35.265Z,7.00
2023-03-11T20:39:04.367Z,6.40
2023-03-11T20:41:35.209Z,6.80
2023-03-11T20:44:05.675Z,7.50
2023-03-11T20:46:34.328Z,6.50
2023-03-11T20:49:02.724Z,6.50
2023-03-11T20:51:30.992Z,7.50
2023-03-11T20:53:59.046Z,9.25
2023-03-11T20:56:27.541Z,9.75
2023-03-11T20:58:59.375Z,6.25
2023-03-11T21:01:30.135Z,6.75
2023-03-11T21:03:59.134Z,7.00
2023-03-11T21:06:28.719Z,7.00
2023-03-11T21:08:57.680Z,5.00
2023-03-11T21:11:26.297Z,7.50
2023-03-11T21:13:55.371Z,6.00
2023-03-11T21:16:23.770Z,6.25
2023-03-11T21:18:53.591Z,6.25
2023-03-11T21:21:22.240Z,6.50
2023-03-11T21:23:50.627Z,4.75
2023-03-11T21:26:19.259Z,7.50
2023-03-11T21:28:47.912Z,9.20
2023-03-11T21:31:17.748Z,9.00
2023-03-11T21:33:46.317Z,2.50
2023-03-11T21:36:16.598Z,6.00
2023-03-11T21:38:45.084Z,6.25
2023-03-11T21:41:14.686Z,7.00
2023-03-11T21:43:43.473Z,6.00
2023-03-11T21:46:12.592Z,3.67
2023-03-11T21:48:40.945Z,7.00
2023-03-11T21:51:09.039Z,4.00
2023-03-11T21:53:38.537Z,6.00
2023-03-11T21:56:07.181Z,3.75
2023-03-11T21:58:35.570Z,3.25
2023-03-11T22:01:04.288Z,4.00
2023-03-11T22:03:35.650Z,4.00
2023-03-11T22:06:06.373Z,3.25
2023-03-11T22:08:34.574Z,5.75
2023-03-11T22:11:04.586Z,3.00
2023-03-11T22:13:32.818Z,4.00
2023-03-11T22:16:03.237Z,4.00
2023-03-11T22:18:31.676Z,4.00
2023-03-11T22:20:59.877Z,4.00
2023-03-11T22:23:28.427Z,3.25
2023-03-11T22:25:56.566Z,4.00
2023-03-11T22:28:26.161Z,4.00
2023-03-11T22:30:54.764Z,3.00
2023-03-11T22:33:22.882Z,4.00
2023-03-11T22:35:51.838Z,3.00
2023-03-11T22:38:20.021Z,3.00
2023-03-11T22:40:48.119Z,3.50
2023-03-11T22:43:16.242Z,4.00
2023-03-11T22:45:46.925Z,1.00
2023-03-11T22:48:15.397Z,3.00
2023-03-11T22:50:44.499Z,1.50
2023-03-11T22:53:12.830Z,3.00
2023-03-11T22:55:41.273Z,3.00
2023-03-11T22:58:09.433Z,3.00
2023-03-11T23:00:38.019Z,3.50
2023-03-11T23:03:08.163Z,2.00
2023-03-11T23:05:42.049Z,3.00
2023-03-11T23:08:10.755Z,4.00
2023-03-11T23:10:40.750Z,3.50
2023-03-11T23:13:09.328Z,3.50
2023-03-11T23:15:37.661Z,5.50
2023-03-11T23:18:07.356Z,4.00
2023-03-11T23:20:36.711Z,4.00
2023-03-11T23:23:05.220Z,6.75
2023-03-11T23:25:33.848Z,6.00
2023-03-11T23:28:03.096Z,6.75
2023-03-11T23:30:31.248Z,6.25
2023-03-11T23:32:59.587Z,6.50
2023-03-11T23:35:29.240Z,6.50
2023-03-11T23:37:57.296Z,8.00
2023-03-11T23:40:25.662Z,8.00
2023-03-11T23:42:53.824Z,7.75
2023-03-11T23:45:21.975Z,8.00
2023-03-11T23:47:50.100Z,2.00
2023-03-11T23:50:18.408Z,9.00
2023-03-11T23:52:47.890Z,7.00
2023-03-11T23:55:16.152Z,5.50
2023-03-11T23:57:44.487Z,7.00
